createdAt,value
2018-09-15T00:00:42.996Z,23.00
2018-09-15T00:03:11.439Z,23.00
2018-09-15T00:05:39.880Z,23.00
2018-09-15T00:08:08.353Z,23.00
2018-09-15T00:10:36.883Z,23.00
2018-09-15T00:13:05.364Z,23.00
2018-09-15T00:15:33.837Z,23.00
2018-09-15T00:18:04.291Z,22.90
2018-09-15T00:20:32.735Z,22.90
2018-09-15T00:23:01.311Z,22.90
2018-09-15T00:25:29.691Z,22.90
2018-09-15T00:27:58.147Z,22.90
2018-09-15T00:30:26.591Z,22.90
2018-09-15T00:32:55.016Z,22.90
2018-09-15T00:35:23.440Z,22.90
2018-09-15T00:37:52.043Z,22.90
2018-09-15T00:40:20.480Z,22.90
2018-09-15T00:42:48.928Z,22.90
2018-09-15T00:45:17.418Z,22.90
2018-09-15T00:47:45.852Z,22.90
2018-09-15T00:50:14.749Z,22.90
2018-09-15T00:52:43.207Z,22.90
2018-09-15T00:55:11.641Z,22.90
2018-09-15T00:57:40.077Z,22.90
2018-09-15T01:00:09.123Z,22.90
2018-09-15T01:02:38.265Z,22.90
2018-09-15T01:05:06.766Z,22.90
2018-09-15T01:07:35.285Z,22.90
2018-09-15T01:10:03.735Z,22.90
2018-09-15T01:12:32.319Z,22.90
2018-09-15T01:15:00.806Z,22.90
2018-09-15T01:17:29.297Z,22.90
2018-09-15T01:19:57.778Z,22.90
2018-09-15T01:22:26.265Z,22.90
2018-09-15T01:24:54.699Z,22.80
2018-09-15T01:27:23.216Z,22.90
2018-09-15T01:29:51.712Z,22.80
2018-09-15T01:32:20.185Z,22.80
2018-09-15T01:34:48.630Z,22.80
2018-09-15T01:37:17.472Z,22.80
2018-09-15T01:39:45.921Z,22.80
2018-09-15T01:42:14.340Z,22.80
2018-09-15T01:44:42.813Z,22.90
2018-09-15T01:47:11.294Z,22.80
2018-09-15T01:49:39.851Z,22.90
2018-09-15T01:52:08.376Z,22.90
2018-09-15T01:54:36.852Z,22.80
2018-09-15T01:57:05.297Z,22.80
2018-09-15T01:59:33.759Z,22.80
2018-09-15T02:02:03.236Z,22.80
2018-09-15T02:04:31.668Z,22.90
2018-09-15T02:07:00.125Z,22.80
2018-09-15T02:09:28.590Z,22.90
2018-09-15T02:11:57.009Z,22.90
2018-09-15T02:14:25.593Z,22.90
2018-09-15T02:16:54.039Z,22.90
2018-09-15T02:19:22.469Z,22.90
2018-09-15T02:21:50.939Z,22.90
2018-09-15T02:24:19.370Z,22.90
2018-09-15T02:26:47.794Z,22.90
2018-09-15T02:29:16.262Z,22.90
2018-09-15T02:31:44.686Z,22.90
2018-09-15T02:34:13.107Z,22.90
2018-09-15T02:36:42.573Z,22.90
2018-09-15T02:39:11.872Z,22.90
2018-09-15T02:41:40.287Z,22.90
2018-09-15T02:44:08.739Z,22.80
2018-09-15T02:46:37.246Z,22.90
2018-09-15T02:49:05.686Z,22.90
2018-09-15T02:51:34.156Z,22.80
2018-09-15T02:54:02.623Z,22.90
2018-09-15T02:56:31.072Z,22.90
2018-09-15T02:58:59.551Z,22.80
2018-09-15T03:01:27.994Z,22.80
2018-09-15T03:03:56.429Z,22.90
2018-09-15T03:06:24.923Z,22.90
2018-09-15T03:08:53.345Z,22.80
2018-09-15T03:11:22.783Z,22.90
2018-09-15T03:13:51.256Z,22.90
2018-09-15T03:16:19.834Z,22.80
2018-09-15T03:18:48.668Z,22.80
2018-09-15T03:21:17.543Z,22.80
2018-09-15T03:23:46.140Z,22.80
2018-09-15T03:26:14.592Z,22.80
2018-09-15T03:28:43.097Z,22.80
2018-09-15T03:31:11.846Z,22.90
2018-09-15T03:33:40.298Z,22.90
2018-09-15T03:36:09.748Z,22.80
2018-09-15T03:38:38.208Z,22.80
2018-09-15T03:41:07.061Z,22.80
2018-09-15T03:43:35.630Z,22.80
2018-09-15T03:46:04.077Z,22.80
2018-09-15T03:48:32.532Z,22.80
2018-09-15T03:51:01.065Z,22.80
2018-09-15T03:53:29.561Z,22.80
2018-09-15T03:55:58.009Z,22.80
2018-09-15T03:58:26.472Z,22.80
2018-09-15T04:00:54.909Z,22.80
2018-09-15T04:03:23.958Z,22.80
2018-09-15T04:05:52.416Z,22.80
2018-09-15T04:08:21.132Z,22.80
2018-09-15T04:10:49.561Z,22.80
2018-09-15T04:13:18.030Z,22.70
2018-09-15T04:15:46.581Z,22.70
2018-09-15T04:18:16.485Z,22.70
2018-09-15T04:20:46.929Z,22.80
2018-09-15T04:23:16.075Z,22.70
2018-09-15T04:25:45.208Z,22.70
2018-09-15T04:28:13.692Z,22.70
2018-09-15T04:30:42.692Z,22.70
2018-09-15T04:33:11.177Z,22.70
2018-09-15T04:35:40.101Z,22.70
2018-09-15T04:38:08.555Z,22.70
2018-09-15T04:40:37.262Z,22.80
2018-09-15T04:43:05.698Z,22.80
2018-09-15T04:45:34.181Z,22.70
2018-09-15T04:48:02.616Z,22.70
2018-09-15T04:50:31.050Z,22.70
2018-09-15T04:52:59.534Z,22.70
2018-09-15T04:55:28.010Z,22.70
2018-09-15T04:57:56.497Z,22.70
2018-09-15T05:00:24.928Z,22.70
2018-09-15T05:02:53.364Z,22.70
2018-09-15T05:05:22.824Z,22.70
2018-09-15T05:07:51.262Z,22.70
2018-09-15T05:10:19.687Z,22.70
2018-09-15T05:12:48.210Z,22.80
2018-09-15T05:15:16.601Z,22.70
2018-09-15T05:17:45.100Z,22.70
2018-09-15T05:20:13.800Z,22.80
2018-09-15T05:22:42.272Z,22.80
2018-09-15T05:25:10.713Z,22.70
2018-09-15T05:27:39.159Z,22.80
2018-09-15T05:30:07.885Z,22.80
2018-09-15T05:32:36.366Z,22.80
2018-09-15T05:35:04.832Z,22.80
2018-09-15T05:44:17.014Z,22.80
2018-09-15T05:46:45.453Z,22.80
2018-09-15T05:49:14.725Z,22.80
2018-09-15T05:51:43.170Z,22.80
2018-09-15T05:54:12.753Z,22.80
2018-09-15T05:56:41.233Z,22.80
2018-09-15T05:59:10.739Z,22.80
2018-09-15T06:01:39.279Z,22.90
2018-09-15T06:04:07.680Z,22.90
2018-09-15T06:06:36.211Z,22.80
2018-09-15T06:09:06.497Z,22.90
2018-09-15T06:11:34.944Z,22.90
2018-09-15T06:14:03.465Z,22.90
2018-09-15T06:16:31.876Z,22.90
2018-09-15T06:19:01.316Z,22.90
2018-09-15T06:21:30.973Z,22.90
2018-09-15T06:23:59.431Z,22.90
2018-09-15T06:26:28.071Z,22.90
2018-09-15T06:28:56.628Z,22.90
2018-09-15T06:31:26.093Z,22.90
2018-09-15T06:33:54.512Z,22.90
2018-09-15T06:36:23.087Z,22.90
2018-09-15T06:38:51.382Z,22.90
2018-09-15T06:41:19.873Z,22.90
2018-09-15T06:43:48.290Z,22.90
2018-09-15T06:46:16.708Z,22.90
2018-09-15T06:48:45.479Z,22.90
2018-09-15T06:51:13.924Z,22.90
2018-09-15T06:53:42.409Z,22.90
2018-09-15T06:56:10.772Z,22.90
2018-09-15T06:58:39.236Z,22.90
2018-09-15T07:01:07.655Z,22.90
2018-09-15T07:03:36.083Z,22.90
2018-09-15T07:06:05.548Z,22.90
2018-09-15T07:08:33.980Z,22.90
2018-09-15T07:11:02.412Z,22.90
2018-09-15T07:13:30.883Z,22.90
2018-09-15T07:15:59.317Z,22.90
2018-09-15T07:18:27.751Z,22.80
2018-09-15T07:20:56.218Z,22.80
2018-09-15T07:23:24.759Z,22.80
2018-09-15T07:25:53.256Z,22.80
2018-09-15T07:28:21.703Z,22.80
2018-09-15T07:30:50.126Z,22.80
2018-09-15T07:33:18.553Z,22.80
2018-09-15T07:35:47.008Z,22.80
2018-09-15T07:38:15.463Z,22.70
2018-09-15T07:40:43.918Z,22.70
2018-09-15T07:43:12.386Z,22.80
2018-09-15T07:45:40.863Z,22.70
2018-09-15T07:48:09.350Z,22.70
2018-09-15T07:50:37.790Z,22.70
2018-09-15T07:53:06.261Z,22.70
2018-09-15T07:55:34.732Z,22.80
2018-09-15T07:58:03.182Z,22.70
2018-09-15T08:00:31.703Z,22.80
2018-09-15T08:03:00.120Z,22.70
2018-09-15T08:05:28.536Z,22.70
2018-09-15T08:07:56.952Z,22.70
2018-09-15T08:10:25.372Z,22.80
2018-09-15T08:12:53.848Z,22.70
2018-09-15T08:15:22.240Z,22.70
2018-09-15T08:17:50.632Z,22.70
2018-09-15T08:20:19.196Z,22.70
2018-09-15T08:22:47.625Z,22.70
2018-09-15T08:25:16.293Z,22.80
2018-09-15T08:27:44.819Z,22.70
2018-09-15T08:30:13.288Z,22.70
2018-09-15T08:32:41.714Z,22.80
2018-09-15T08:35:10.156Z,22.70
2018-09-15T08:37:38.580Z,22.70
2018-09-15T08:40:07.176Z,22.70
2018-09-15T08:42:35.609Z,22.70
2018-09-15T08:45:04.051Z,22.80
2018-09-15T08:47:32.504Z,22.80
2018-09-15T08:50:00.976Z,22.80
2018-09-15T08:52:29.397Z,22.80
2018-09-15T08:54:57.800Z,22.80
2018-09-15T08:57:26.248Z,22.80
2018-09-15T08:59:54.679Z,22.80
2018-09-15T09:02:23.129Z,22.80
2018-09-15T09:04:51.607Z,22.80
2018-09-15T09:07:20.042Z,22.80
2018-09-15T09:09:48.455Z,22.80
2018-09-15T09:12:16.888Z,22.80
2018-09-15T09:14:45.337Z,22.80
2018-09-15T09:17:13.774Z,22.80
2018-09-15T09:19:42.217Z,22.80
2018-09-15T09:22:10.628Z,22.80
2018-09-15T09:24:39.125Z,22.80
2018-09-15T09:27:07.660Z,22.90
2018-09-15T09:29:36.089Z,22.90
2018-09-15T09:32:04.571Z,22.90
2018-09-15T09:34:33.076Z,22.90
2018-09-15T09:37:01.487Z,22.90
2018-09-15T09:39:29.929Z,22.90
2018-09-15T09:41:58.368Z,23.00
2018-09-15T09:44:26.760Z,23.00
2018-09-15T09:46:55.212Z,23.00
2018-09-15T09:49:23.641Z,23.00
2018-09-15T09:51:52.088Z,23.00
2018-09-15T09:54:20.541Z,23.00
2018-09-15T09:56:48.996Z,23.00
2018-09-15T09:59:17.415Z,23.10
2018-09-15T10:01:51.115Z,23.10
2018-09-15T10:04:19.728Z,23.10
2018-09-15T10:06:48.206Z,23.10
2018-09-15T10:09:16.609Z,23.10
2018-09-15T10:11:45.077Z,23.10
2018-09-15T10:14:13.525Z,23.10
2018-09-15T10:16:41.976Z,23.10
2018-09-15T10:19:10.421Z,23.10
2018-09-15T10:21:38.906Z,23.10
2018-09-15T10:24:07.354Z,23.10
2018-09-15T10:26:35.791Z,23.20
2018-09-15T10:29:04.465Z,23.20
2018-09-15T10:31:32.923Z,23.20
2018-09-15T10:34:01.352Z,23.20
2018-09-15T10:36:29.788Z,23.20
2018-09-15T10:38:58.271Z,23.30
2018-09-15T10:41:26.679Z,23.30
2018-09-15T10:43:55.111Z,23.30
2018-09-15T10:46:23.553Z,23.30
2018-09-15T10:48:51.977Z,23.30
2018-09-15T10:51:20.408Z,23.30
2018-09-15T10:53:49.133Z,23.30
2018-09-15T10:56:17.591Z,23.40
2018-09-15T10:58:46.041Z,23.40
2018-09-15T11:01:14.448Z,23.40
2018-09-15T11:03:42.834Z,23.40
2018-09-15T11:06:11.266Z,23.40
2018-09-15T11:08:39.646Z,23.40
2018-09-15T11:11:08.011Z,23.40
2018-09-15T11:13:36.403Z,23.40
2018-09-15T11:16:04.818Z,23.40
2018-09-15T11:18:33.158Z,23.40
2018-09-15T11:21:01.513Z,23.40
2018-09-15T11:23:29.941Z,23.40
2018-09-15T11:25:58.329Z,23.40
2018-09-15T11:28:26.709Z,23.40
2018-09-15T11:30:55.240Z,23.40
2018-09-15T11:33:23.613Z,23.50
2018-09-15T11:35:51.970Z,23.50
2018-09-15T11:38:20.326Z,23.50
2018-09-15T11:40:48.697Z,23.50
2018-09-15T11:43:17.961Z,23.50
2018-09-15T11:45:46.362Z,23.40
2018-09-15T11:48:14.788Z,23.50
2018-09-15T11:50:43.129Z,23.50
2018-09-15T11:53:11.530Z,23.40
2018-09-15T11:55:39.921Z,23.40
2018-09-15T11:58:08.286Z,23.40
2018-09-15T12:00:39.302Z,23.40
2018-09-15T12:03:07.958Z,23.40
2018-09-15T12:05:36.313Z,23.40
2018-09-15T12:08:05.794Z,23.40
2018-09-15T12:10:34.161Z,23.40
2018-09-15T12:13:02.514Z,23.40
2018-09-15T12:15:30.893Z,23.40
2018-09-15T12:17:59.269Z,23.40
2018-09-15T12:20:27.599Z,23.30
2018-09-15T12:22:55.970Z,23.30
2018-09-15T12:25:24.332Z,23.30
2018-09-15T12:27:52.686Z,23.30
2018-09-15T12:30:21.144Z,23.30
2018-09-15T12:32:49.593Z,23.30
2018-09-15T12:35:17.995Z,23.30
2018-09-15T12:37:46.382Z,23.30
2018-09-15T12:40:14.741Z,23.20
2018-09-15T12:42:43.104Z,23.20
2018-09-15T12:45:11.573Z,23.20
2018-09-15T12:47:39.986Z,23.20
2018-09-15T12:50:08.428Z,23.20
2018-09-15T12:52:36.879Z,23.10
2018-09-15T12:55:05.393Z,23.10
2018-09-15T12:57:33.824Z,23.10
2018-09-15T13:00:03.290Z,23.10
2018-09-15T13:02:31.720Z,23.10
2018-09-15T13:05:00.165Z,23.10
2018-09-15T13:07:28.745Z,23.10
2018-09-15T13:09:57.201Z,23.10
2018-09-15T13:12:25.636Z,23.10
2018-09-15T13:14:54.122Z,23.10
2018-09-15T13:17:22.557Z,23.10
2018-09-15T13:19:50.985Z,23.10
2018-09-15T13:22:19.427Z,23.10
2018-09-15T13:24:47.885Z,23.10
2018-09-15T13:27:16.433Z,23.10
2018-09-15T13:29:44.925Z,23.20
2018-09-15T13:32:13.378Z,23.20
2018-09-15T13:34:42.051Z,23.20
2018-09-15T13:37:10.528Z,23.30
2018-09-15T13:39:38.955Z,23.30
2018-09-15T13:42:07.522Z,23.30
2018-09-15T13:44:36.004Z,23.30
2018-09-15T13:47:04.530Z,23.40
2018-09-15T13:49:33.000Z,23.40
2018-09-15T13:52:01.475Z,23.30
2018-09-15T13:54:30.088Z,23.40
2018-09-15T13:56:58.574Z,23.40
2018-09-15T13:59:27.056Z,23.40
2018-09-15T14:01:55.809Z,23.40
2018-09-15T14:04:24.289Z,23.50
2018-09-15T14:06:52.781Z,23.50
2018-09-15T14:09:21.213Z,23.50
2018-09-15T14:11:49.636Z,23.50
2018-09-15T14:14:18.082Z,23.50
2018-09-15T14:16:46.550Z,23.60
2018-09-15T14:19:15.040Z,23.50
2018-09-15T14:21:44.504Z,23.60
2018-09-15T14:24:13.603Z,23.60
2018-09-15T14:26:42.026Z,23.60
2018-09-15T14:29:11.465Z,23.60
2018-09-15T14:31:39.918Z,23.60
2018-09-15T14:34:08.390Z,23.60
2018-09-15T14:36:36.990Z,23.60
2018-09-15T14:39:07.582Z,23.60
2018-09-15T14:41:36.045Z,23.70
2018-09-15T14:44:04.496Z,23.70
2018-09-15T14:46:32.977Z,23.70
2018-09-15T14:49:01.418Z,23.70
2018-09-15T14:51:29.901Z,23.70
2018-09-15T14:53:58.308Z,23.80
2018-09-15T14:56:26.781Z,23.80
2018-09-15T14:58:55.243Z,23.80
2018-09-15T15:01:23.630Z,23.80
2018-09-15T15:03:52.049Z,23.80
2018-09-15T15:06:20.515Z,23.80
2018-09-15T15:08:49.031Z,23.80
2018-09-15T15:11:17.410Z,23.90
2018-09-15T15:13:45.843Z,23.80
2018-09-15T15:16:14.269Z,23.80
2018-09-15T15:18:42.682Z,23.80
2018-09-15T15:21:11.126Z,23.80
2018-09-15T15:23:39.516Z,23.80
2018-09-15T15:26:07.980Z,23.80
2018-09-15T15:28:36.347Z,23.80
2018-09-15T15:31:04.719Z,23.80
2018-09-15T15:33:33.120Z,23.80
2018-09-15T15:36:01.556Z,23.80
2018-09-15T15:38:30.531Z,23.80
2018-09-15T15:40:58.944Z,23.80
2018-09-15T15:43:27.386Z,23.80
2018-09-15T15:45:55.792Z,23.80
2018-09-15T15:48:24.192Z,23.80
2018-09-15T15:50:52.641Z,23.80
2018-09-15T15:53:21.033Z,23.90
2018-09-15T15:55:49.503Z,23.90
2018-09-15T15:58:18.134Z,23.90
2018-09-15T16:00:46.559Z,23.90
2018-09-15T16:03:14.959Z,24.00
2018-09-15T16:05:43.387Z,24.00
2018-09-15T16:08:11.808Z,24.00
2018-09-15T16:10:41.187Z,24.00
2018-09-15T16:13:09.616Z,24.10
2018-09-15T16:15:38.074Z,24.10
2018-09-15T16:18:06.498Z,24.10
2018-09-15T16:20:34.916Z,24.10
2018-09-15T16:23:04.376Z,24.10
2018-09-15T16:25:32.782Z,24.20
2018-09-15T16:28:01.161Z,24.20
2018-09-15T16:30:29.561Z,24.20
2018-09-15T16:32:57.968Z,24.30
2018-09-15T16:35:27.476Z,24.30
2018-09-15T16:37:55.886Z,24.30
2018-09-15T16:40:24.377Z,24.30
2018-09-15T16:42:52.851Z,24.30
2018-09-15T16:45:21.265Z,24.30
2018-09-15T16:47:49.647Z,24.30
2018-09-15T16:50:18.113Z,24.30
2018-09-15T16:52:46.496Z,24.30
2018-09-15T16:55:14.905Z,24.20
2018-09-15T16:57:43.369Z,24.20
2018-09-15T17:00:11.828Z,24.20
2018-09-15T17:02:41.024Z,24.20
2018-09-15T17:05:09.487Z,24.20
2018-09-15T17:07:37.917Z,24.20
2018-09-15T17:10:06.418Z,24.10
2018-09-15T17:12:34.959Z,24.10
2018-09-15T17:15:03.435Z,24.10
2018-09-15T17:17:32.200Z,24.10
2018-09-15T17:20:00.952Z,24.10
2018-09-15T17:22:29.466Z,24.10
2018-09-15T17:24:57.895Z,24.10
2018-09-15T17:27:26.432Z,24.00
2018-09-15T17:29:54.889Z,24.00
2018-09-15T17:32:23.317Z,24.00
2018-09-15T17:34:51.901Z,24.00
2018-09-15T17:37:20.346Z,24.00
2018-09-15T17:39:48.860Z,24.00
2018-09-15T17:42:17.314Z,24.00
2018-09-15T17:44:45.676Z,24.00
2018-09-15T17:47:14.099Z,24.00
2018-09-15T17:49:42.591Z,24.00
2018-09-15T17:52:10.961Z,24.00
2018-09-15T17:54:39.380Z,23.90
2018-09-15T17:57:07.848Z,23.90
2018-09-15T17:59:36.291Z,23.90
2018-09-15T18:02:04.704Z,23.90
2018-09-15T18:04:33.287Z,23.90
2018-09-15T18:07:01.652Z,23.90
2018-09-15T18:09:30.038Z,23.90
2018-09-15T18:11:59.987Z,23.90
2018-09-15T18:14:28.432Z,23.80
2018-09-15T18:16:57.047Z,23.80
2018-09-15T18:19:25.908Z,23.80
2018-09-15T18:21:54.424Z,23.80
2018-09-15T18:24:22.885Z,23.80
2018-09-15T18:26:51.349Z,23.80
2018-09-15T18:29:20.080Z,23.80
2018-09-15T18:31:48.579Z,23.80
2018-09-15T18:34:17.100Z,23.80
2018-09-15T18:36:46.170Z,23.80
2018-09-15T18:39:14.507Z,23.70
2018-09-15T18:41:42.988Z,23.80
2018-09-15T18:44:11.684Z,23.80
2018-09-15T18:46:40.162Z,23.80
2018-09-15T18:49:08.712Z,23.80
2018-09-15T18:51:38.185Z,23.80
2018-09-15T18:54:06.696Z,23.80
2018-09-15T18:56:35.196Z,23.80
2018-09-15T18:59:03.559Z,23.80
2018-09-15T19:01:32.004Z,23.80
2018-09-15T19:04:00.477Z,23.70
2018-09-15T19:06:29.003Z,23.80
2018-09-15T19:08:57.454Z,23.70
2018-09-15T19:11:25.876Z,23.70
2018-09-15T19:13:54.347Z,23.80
2018-09-15T19:16:22.774Z,23.70
2018-09-15T19:18:51.260Z,23.70
2018-09-15T19:21:19.783Z,23.70
2018-09-15T19:23:48.155Z,23.70
2018-09-15T19:26:16.634Z,23.70
2018-09-15T19:28:45.119Z,23.70
2018-09-15T19:31:13.554Z,23.70
2018-09-15T19:33:42.042Z,23.70
2018-09-15T19:36:10.464Z,23.70
2018-09-15T19:38:38.860Z,23.60
2018-09-15T19:41:07.440Z,23.60
2018-09-15T19:43:35.860Z,23.70
2018-09-15T19:46:14.045Z,23.60
2018-09-15T19:48:42.455Z,23.60
2018-09-15T19:51:10.847Z,23.70
2018-09-15T19:53:39.298Z,23.60
2018-09-15T19:56:07.720Z,23.60
2018-09-15T19:58:36.165Z,23.60
2018-09-15T20:01:04.785Z,23.60
2018-09-15T20:03:33.247Z,23.60
2018-09-15T20:06:01.763Z,23.60
2018-09-15T20:08:30.231Z,23.60
2018-09-15T20:10:58.714Z,23.60
2018-09-15T20:13:27.166Z,23.60
2018-09-15T20:15:54.577Z,23.60
2018-09-15T20:18:21.981Z,23.50
2018-09-15T20:20:49.349Z,23.60
2018-09-15T20:23:18.033Z,23.50
2018-09-15T20:25:46.480Z,23.50
2018-09-15T20:28:16.014Z,23.50
2018-09-15T20:30:46.528Z,23.50
2018-09-15T20:33:15.068Z,23.50
2018-09-15T20:35:43.472Z,23.50
2018-09-15T20:38:11.951Z,23.50
2018-09-15T20:40:40.401Z,23.50
2018-09-15T20:43:08.917Z,23.50
2018-09-15T20:45:37.406Z,23.50
2018-09-15T20:48:06.319Z,23.50
2018-09-15T20:50:34.761Z,23.50
2018-09-15T20:53:03.239Z,23.50
2018-09-15T20:55:31.661Z,23.50
2018-09-15T20:58:00.145Z,23.50
2018-09-15T21:00:28.739Z,23.50
2018-09-15T21:02:57.238Z,23.50
2018-09-15T21:05:25.690Z,23.50
2018-09-15T21:07:54.167Z,23.50
2018-09-15T21:10:22.591Z,23.40
2018-09-15T21:12:51.048Z,23.40
2018-09-15T21:15:19.509Z,23.50
2018-09-15T21:17:47.957Z,23.50
2018-09-15T21:20:16.405Z,23.40
2018-09-15T21:22:44.865Z,23.40
2018-09-15T21:25:13.316Z,23.40
2018-09-15T21:27:41.749Z,23.40
2018-09-15T21:30:10.208Z,23.40
2018-09-15T21:32:38.632Z,23.40
2018-09-15T21:35:07.077Z,23.40
2018-09-15T21:37:35.587Z,23.40
2018-09-15T21:40:04.033Z,23.40
2018-09-15T21:42:32.469Z,23.40
2018-09-15T21:45:00.961Z,23.40
2018-09-15T21:47:29.385Z,23.40
2018-09-15T21:49:57.938Z,23.40
2018-09-15T21:52:26.426Z,23.30
2018-09-15T21:54:54.907Z,23.30
2018-09-15T21:57:23.341Z,23.30
2018-09-15T21:59:51.776Z,23.30
2018-09-15T22:02:22.428Z,23.30
2018-09-15T22:04:51.251Z,23.30
2018-09-15T22:07:19.746Z,23.30
2018-09-15T22:09:48.160Z,23.30
2018-09-15T22:12:16.576Z,23.30
2018-09-15T22:14:45.018Z,23.30
2018-09-15T22:17:13.423Z,23.30
2018-09-15T22:19:41.835Z,23.30
2018-09-15T22:22:10.307Z,23.30
2018-09-15T22:24:38.740Z,23.30
2018-09-15T22:27:07.185Z,23.30
2018-09-15T22:29:35.702Z,23.30
2018-09-15T22:32:04.212Z,23.20
2018-09-15T22:34:32.668Z,23.20
2018-09-15T22:37:01.190Z,23.20
2018-09-15T22:39:29.620Z,23.20
2018-09-15T22:41:58.063Z,23.20
2018-09-15T22:44:26.555Z,23.20
2018-09-15T22:46:54.982Z,23.20
2018-09-15T22:49:23.497Z,23.20
2018-09-15T22:51:52.109Z,23.20
2018-09-15T22:54:20.594Z,23.20
2018-09-15T22:56:49.022Z,23.10
2018-09-15T22:59:17.509Z,23.10
2018-09-15T23:01:45.950Z,23.10
2018-09-15T23:04:15.477Z,23.10
2018-09-15T23:06:43.936Z,23.10
2018-09-15T23:09:12.860Z,23.10
2018-09-15T23:11:41.305Z,23.10
2018-09-15T23:14:09.797Z,23.10
2018-09-15T23:16:38.291Z,23.10
2018-09-15T23:19:06.722Z,23.10
2018-09-15T23:21:35.238Z,23.10
2018-09-15T23:24:03.718Z,23.10
2018-09-15T23:26:32.197Z,23.10
2018-09-15T23:29:00.700Z,23.10
2018-09-15T23:31:29.197Z,23.10
2018-09-15T23:33:58.007Z,23.10
2018-09-15T23:36:26.440Z,23.10
2018-09-15T23:38:54.913Z,23.00
2018-09-15T23:41:23.393Z,23.00
2018-09-15T23:43:51.826Z,23.00
2018-09-15T23:46:20.276Z,23.00
2018-09-15T23:48:48.721Z,23.00
2018-09-15T23:51:17.194Z,23.00
2018-09-15T23:53:45.851Z,23.00
2018-09-15T23:56:14.321Z,23.00
2018-09-15T23:58:42.818Z,23.00
